createdAt,value
2018-01-21T00:00:19.145Z,34.13
2018-01-21T00:00:52.835Z,38.65
2018-01-21T00:01:27.274Z,38.80
2018-01-21T00:02:00.938Z,36.38
2018-01-21T00:02:34.620Z,37.85
2018-01-21T00:03:08.298Z,37.65
2018-01-21T00:03:42.768Z,41.35
2018-01-21T00:04:16.437Z,37.08
2018-01-21T00:04:50.110Z,36.17
2018-01-21T00:05:23.782Z,36.88
2018-01-21T00:05:58.231Z,34.78
2018-01-21T00:06:31.905Z,36.60
2018-01-21T00:07:05.571Z,37.83
2018-01-21T00:07:38.934Z,38.78
2018-01-21T00:08:13.384Z,40.25
2018-01-21T00:08:47.091Z,42.58
2018-01-21T00:09:20.769Z,36.08
2018-01-21T00:09:54.437Z,36.75
2018-01-21T00:10:28.112Z,35.88
2018-01-21T00:11:02.541Z,39.42
2018-01-21T00:11:36.217Z,37.70
2018-01-21T00:12:09.890Z,34.17
2018-01-21T00:12:44.331Z,36.88
2018-01-21T00:13:18.023Z,36.95
2018-01-21T00:13:51.722Z,37.83
2018-01-21T00:14:25.418Z,35.33
2018-01-21T00:14:59.086Z,36.72
2018-01-21T00:15:32.762Z,42.97
2018-01-21T00:16:06.425Z,39.25
2018-01-21T00:16:40.099Z,37.75
2018-01-21T00:17:13.765Z,41.78
2018-01-21T00:17:47.416Z,41.95
2018-01-21T00:18:21.845Z,35.65
2018-01-21T00:18:55.250Z,36.78
2018-01-21T00:19:28.914Z,38.72
2018-01-21T00:20:02.585Z,38.13
2018-01-21T00:20:37.060Z,38.03
2018-01-21T00:21:10.734Z,39.55
2018-01-21T00:21:44.400Z,39.30
2018-01-21T00:22:29.091Z,36.00
2018-01-21T00:23:04.257Z,38.22
2018-01-21T00:23:37.923Z,40.83
2018-01-21T00:24:11.605Z,39.95
2018-01-21T00:24:45.285Z,48.80
2018-01-21T00:25:18.950Z,38.88
2018-01-21T00:25:52.628Z,38.88
2018-01-21T00:26:26.299Z,42.15
2018-01-21T00:26:59.973Z,43.63
2018-01-21T00:27:34.222Z,42.75
2018-01-21T00:28:07.891Z,41.33
2018-01-21T00:28:41.567Z,36.75
2018-01-21T00:29:15.279Z,39.60
2018-01-21T00:29:48.954Z,36.95
2018-01-21T00:30:22.633Z,40.75
2018-01-21T00:30:56.301Z,43.22
2018-01-21T00:31:30.727Z,38.38
2018-01-21T00:32:05.143Z,43.42
2018-01-21T00:32:38.803Z,42.72
2018-01-21T00:33:13.230Z,43.50
2018-01-21T00:33:46.934Z,43.95
2018-01-21T00:34:20.584Z,42.15
2018-01-21T00:34:54.243Z,41.08
2018-01-21T00:35:27.914Z,41.28
2018-01-21T00:36:01.575Z,39.83
2018-01-21T00:36:35.230Z,45.05
2018-01-21T00:37:08.899Z,38.65
2018-01-21T00:37:42.577Z,38.47
2018-01-21T00:38:16.265Z,37.50
2018-01-21T00:38:49.922Z,40.28
2018-01-21T00:39:24.361Z,39.67
2018-01-21T00:39:58.026Z,38.97
2018-01-21T00:40:31.686Z,41.65
2018-01-21T00:41:06.117Z,38.95
2018-01-21T00:41:39.770Z,39.45
2018-01-21T00:42:13.437Z,42.55
2018-01-21T00:42:46.781Z,37.97
2018-01-21T00:43:20.446Z,41.90
2018-01-21T00:43:54.978Z,38.15
2018-01-21T00:44:28.665Z,37.38
2018-01-21T00:45:02.321Z,40.50
2018-01-21T00:45:35.661Z,36.67
2018-01-21T00:46:09.331Z,39.25
2018-01-21T00:46:43.014Z,37.58
2018-01-21T00:47:16.683Z,39.95
2018-01-21T00:47:51.118Z,36.42
2018-01-21T00:48:24.785Z,40.20
2018-01-21T00:48:59.213Z,38.70
2018-01-21T00:49:33.172Z,41.47
2018-01-21T00:50:06.831Z,41.97
2018-01-21T00:50:40.498Z,40.30
2018-01-21T00:51:14.161Z,39.13
2018-01-21T00:51:48.587Z,43.35
2018-01-21T00:52:22.253Z,37.72
2018-01-21T00:52:56.679Z,35.05
2018-01-21T00:53:30.358Z,37.72
2018-01-21T00:54:04.771Z,39.22
2018-01-21T00:54:39.224Z,41.65
2018-01-21T00:55:12.889Z,39.15
2018-01-21T00:55:46.639Z,44.70
2018-01-21T00:56:20.299Z,43.22
2018-01-21T00:56:53.955Z,39.20
2018-01-21T00:57:27.633Z,38.55
2018-01-21T00:58:01.299Z,41.37
2018-01-21T00:58:34.974Z,40.20
2018-01-21T00:59:08.646Z,38.40
2018-01-21T00:59:42.326Z,35.97
2018-01-21T01:00:16.001Z,44.80
2018-01-21T01:00:49.664Z,40.03
2018-01-21T01:01:23.351Z,35.70
2018-01-21T01:01:57.026Z,39.33
2018-01-21T01:02:31.466Z,38.47
2018-01-21T01:03:04.476Z,39.63
2018-01-21T01:03:38.138Z,41.63
2018-01-21T01:04:11.806Z,43.90
2018-01-21T01:04:45.494Z,42.85
2018-01-21T01:05:19.153Z,41.05
2018-01-21T01:05:52.810Z,35.55
2018-01-21T01:06:26.482Z,40.20
2018-01-21T01:07:00.151Z,37.40
2018-01-21T01:07:34.583Z,40.92
2018-01-21T01:08:08.252Z,37.90
2018-01-21T01:08:41.918Z,36.63
2018-01-21T01:09:16.357Z,36.80
2018-01-21T01:09:50.050Z,38.35
2018-01-21T01:10:23.714Z,45.05
2018-01-21T01:10:58.155Z,37.83
2018-01-21T01:11:31.477Z,42.60
2018-01-21T01:12:05.138Z,40.30
2018-01-21T01:12:38.803Z,37.95
2018-01-21T01:13:12.473Z,37.45
2018-01-21T01:13:46.901Z,38.83
2018-01-21T01:14:20.573Z,35.83
2018-01-21T01:14:54.282Z,36.35
2018-01-21T01:15:27.953Z,36.15
2018-01-21T01:16:01.623Z,37.65
2018-01-21T01:16:36.053Z,37.45
2018-01-21T01:17:09.807Z,40.20
2018-01-21T01:17:43.476Z,40.10
2018-01-21T01:18:17.149Z,35.58
2018-01-21T01:18:50.814Z,39.10
2018-01-21T01:19:24.479Z,39.65
2018-01-21T01:19:58.962Z,40.00
2018-01-21T01:20:32.629Z,41.45
2018-01-21T01:21:06.286Z,41.60
2018-01-21T01:21:39.956Z,38.70
2018-01-21T01:22:13.658Z,39.45
2018-01-21T01:22:48.114Z,46.55
2018-01-21T01:23:21.780Z,38.05
2018-01-21T01:23:55.446Z,38.58
2018-01-21T01:24:29.873Z,39.40
2018-01-21T01:25:03.554Z,40.97
2018-01-21T01:25:38.171Z,40.25
2018-01-21T01:26:11.834Z,38.40
2018-01-21T01:26:46.262Z,40.88
2018-01-21T01:27:19.937Z,37.38
2018-01-21T01:27:54.359Z,42.22
2018-01-21T01:28:28.787Z,38.75
2018-01-21T01:29:02.284Z,41.40
2018-01-21T01:29:35.936Z,44.40
2018-01-21T01:30:10.386Z,39.88
2018-01-21T01:30:44.055Z,42.28
2018-01-21T01:31:17.714Z,41.22
2018-01-21T01:31:52.146Z,37.88
2018-01-21T01:32:31.445Z,41.65
2018-01-21T01:33:05.866Z,41.90
2018-01-21T01:33:39.531Z,40.85
2018-01-21T01:34:13.954Z,42.30
2018-01-21T01:34:47.614Z,40.72
2018-01-21T01:35:20.958Z,46.45
2018-01-21T01:35:54.642Z,38.20
2018-01-21T01:36:28.311Z,39.85
2018-01-21T01:37:01.977Z,47.78
2018-01-21T01:37:36.229Z,44.47
2018-01-21T01:38:09.892Z,40.58
2018-01-21T01:38:43.538Z,41.20
2018-01-21T01:39:17.209Z,39.80
2018-01-21T01:39:50.873Z,40.50
2018-01-21T01:40:24.564Z,42.33
2018-01-21T01:40:58.233Z,41.13
2018-01-21T01:41:32.701Z,41.78
2018-01-21T01:42:06.365Z,43.05
2018-01-21T01:42:40.043Z,47.17
2018-01-21T01:43:13.715Z,40.97
2018-01-21T01:43:47.380Z,43.75
2018-01-21T01:44:21.796Z,42.97
2018-01-21T01:44:56.223Z,45.20
2018-01-21T01:45:29.922Z,42.72
2018-01-21T01:46:02.920Z,41.15
2018-01-21T01:46:36.594Z,42.58
2018-01-21T01:47:10.259Z,47.55
2018-01-21T01:47:43.909Z,42.17
2018-01-21T01:48:17.570Z,41.35
2018-01-21T01:48:56.097Z,42.92
2018-01-21T01:49:29.754Z,44.42
2018-01-21T01:50:03.410Z,48.10
2018-01-21T01:50:37.881Z,47.03
2018-01-21T01:51:11.538Z,47.72
2018-01-21T01:51:45.194Z,49.72
2018-01-21T01:52:19.626Z,54.05
2018-01-21T01:52:53.289Z,45.58
2018-01-21T01:53:27.720Z,46.28
2018-01-21T01:54:01.386Z,46.25
2018-01-21T01:54:35.811Z,46.72
2018-01-21T01:55:09.465Z,52.38
2018-01-21T01:55:43.159Z,47.88
2018-01-21T01:56:17.589Z,47.97
2018-01-21T01:56:51.255Z,47.25
2018-01-21T01:57:24.919Z,49.60
2018-01-21T01:57:58.583Z,48.20
2018-01-21T01:58:32.304Z,48.30
2018-01-21T01:59:06.133Z,50.28
2018-01-21T01:59:40.561Z,51.45
2018-01-21T02:00:14.225Z,52.95
2018-01-21T02:00:48.681Z,49.05
2018-01-21T02:01:22.351Z,51.90
2018-01-21T02:01:56.013Z,50.15
2018-01-21T02:02:30.438Z,50.75
2018-01-21T02:03:04.122Z,48.87
2018-01-21T02:03:37.786Z,52.90
2018-01-21T02:04:11.440Z,53.33
2018-01-21T02:04:45.110Z,53.28
2018-01-21T02:05:18.778Z,51.15
2018-01-21T02:05:52.485Z,51.55
2018-01-21T02:06:26.146Z,53.53
2018-01-21T02:07:00.588Z,46.37
2018-01-21T02:07:34.249Z,48.90
2018-01-21T02:08:07.910Z,50.30
2018-01-21T02:08:41.570Z,49.92
2018-01-21T02:09:15.224Z,47.38
2018-01-21T02:09:48.918Z,46.00
2018-01-21T02:10:22.575Z,46.92
2018-01-21T02:10:56.297Z,47.88
2018-01-21T02:11:29.969Z,48.25
2018-01-21T02:12:04.424Z,48.85
2018-01-21T02:12:38.094Z,55.70
2018-01-21T02:13:11.760Z,46.85
2018-01-21T02:13:46.191Z,51.58
2018-01-21T02:14:19.841Z,48.15
2018-01-21T02:14:53.504Z,52.33
2018-01-21T02:15:27.159Z,46.28
2018-01-21T02:16:00.862Z,57.28
2018-01-21T02:16:34.541Z,55.42
2018-01-21T02:17:08.245Z,48.90
2018-01-21T02:17:41.909Z,53.35
2018-01-21T02:18:15.577Z,51.40
2018-01-21T02:18:49.999Z,53.45
2018-01-21T02:19:23.665Z,53.05
2018-01-21T02:19:58.092Z,50.12
2018-01-21T02:20:31.741Z,51.20
2018-01-21T02:21:05.092Z,51.75
2018-01-21T02:21:38.416Z,56.88
2018-01-21T02:22:12.188Z,56.20
2018-01-21T02:22:45.869Z,51.80
2018-01-21T02:23:19.534Z,50.25
2018-01-21T02:23:53.193Z,51.78
2018-01-21T02:24:27.610Z,48.87
2018-01-21T02:25:02.041Z,51.92
2018-01-21T02:25:35.705Z,48.28
2018-01-21T02:26:10.153Z,51.50
2018-01-21T02:26:43.822Z,56.63
2018-01-21T02:27:17.488Z,52.83
2018-01-21T02:27:51.916Z,53.65
2018-01-21T02:28:25.582Z,51.60
2018-01-21T02:29:00.021Z,53.17
2018-01-21T02:29:33.737Z,51.78
2018-01-21T02:30:07.402Z,56.63
2018-01-21T02:30:41.071Z,51.47
2018-01-21T02:31:15.513Z,57.53
2018-01-21T02:31:49.201Z,52.33
2018-01-21T02:32:22.869Z,51.33
2018-01-21T02:32:56.525Z,54.22
2018-01-21T02:33:30.945Z,53.05
2018-01-21T02:34:05.060Z,52.60
2018-01-21T02:34:38.726Z,56.72
2018-01-21T02:35:13.159Z,54.15
2018-01-21T02:35:46.830Z,52.17
2018-01-21T02:36:21.280Z,56.55
2018-01-21T02:36:54.941Z,60.20
2018-01-21T02:37:28.612Z,53.05
2018-01-21T02:38:03.038Z,55.30
2018-01-21T02:38:36.706Z,54.55
2018-01-21T02:39:11.150Z,53.95
2018-01-21T02:39:44.814Z,51.20
2018-01-21T02:40:18.474Z,57.45
2018-01-21T02:40:52.145Z,55.28
2018-01-21T02:41:25.833Z,59.10
2018-01-21T02:41:59.654Z,59.97
2018-01-21T02:42:34.084Z,53.15
2018-01-21T02:43:07.757Z,58.80
2018-01-21T02:43:42.193Z,55.90
2018-01-21T02:44:15.859Z,57.17
2018-01-21T02:44:50.280Z,57.67
2018-01-21T02:45:23.943Z,50.45
2018-01-21T02:45:57.612Z,51.00
2018-01-21T02:46:31.309Z,55.40
2018-01-21T02:47:04.973Z,58.20
2018-01-21T02:47:38.644Z,56.60
2018-01-21T02:48:12.339Z,56.60
2018-01-21T02:48:46.000Z,59.00
2018-01-21T02:49:19.653Z,53.90
2018-01-21T02:49:53.305Z,56.45
2018-01-21T02:50:26.967Z,56.17
2018-01-21T02:51:00.632Z,54.30
2018-01-21T02:51:34.337Z,53.40
2018-01-21T02:52:08.749Z,57.10
2018-01-21T02:52:43.188Z,53.38
2018-01-21T02:53:16.853Z,56.33
2018-01-21T02:53:50.505Z,55.80
2018-01-21T02:54:24.189Z,55.92
2018-01-21T02:54:57.861Z,51.10
2018-01-21T02:55:31.535Z,53.25
2018-01-21T02:56:05.207Z,51.78
2018-01-21T02:56:38.914Z,59.08
2018-01-21T02:57:12.571Z,58.95
2018-01-21T02:57:47.137Z,52.70
2018-01-21T02:58:20.806Z,54.67
2018-01-21T02:58:54.461Z,52.78
2018-01-21T02:59:28.900Z,55.45
2018-01-21T03:00:02.558Z,51.97
2018-01-21T03:00:37.413Z,54.08
2018-01-21T03:01:11.079Z,54.30
2018-01-21T03:01:44.762Z,52.28
2018-01-21T03:02:18.432Z,54.03
2018-01-21T03:02:52.878Z,52.20
2018-01-21T03:03:26.538Z,56.67
2018-01-21T03:04:01.276Z,58.67
2018-01-21T03:04:34.945Z,53.47
2018-01-21T03:05:09.390Z,57.45
2018-01-21T03:05:43.047Z,51.78
2018-01-21T03:06:17.581Z,59.33
2018-01-21T03:06:51.288Z,58.25
2018-01-21T03:07:24.962Z,53.78
2018-01-21T03:07:58.639Z,55.67
2018-01-21T03:08:32.303Z,53.17
2018-01-21T03:09:06.721Z,57.60
2018-01-21T03:09:40.389Z,57.53
2018-01-21T03:10:14.816Z,55.40
2018-01-21T03:10:49.266Z,55.10
2018-01-21T03:11:22.941Z,58.92
2018-01-21T03:11:56.620Z,52.67
2018-01-21T03:12:30.273Z,54.88
2018-01-21T03:13:03.930Z,55.00
2018-01-21T03:13:37.593Z,56.28
2018-01-21T03:14:11.267Z,55.92
2018-01-21T03:14:44.946Z,53.63
2018-01-21T03:15:19.380Z,54.28
2018-01-21T03:15:53.079Z,54.00
2018-01-21T03:16:26.761Z,56.20
2018-01-21T03:17:00.448Z,53.42
2018-01-21T03:17:34.106Z,54.13
2018-01-21T03:18:08.525Z,57.45
2018-01-21T03:18:42.180Z,54.30
2018-01-21T03:19:15.886Z,55.50
2018-01-21T03:19:51.201Z,53.75
2018-01-21T03:20:25.335Z,51.50
2018-01-21T03:21:00.280Z,55.92
2018-01-21T03:21:33.946Z,52.03
2018-01-21T03:22:07.654Z,53.65
2018-01-21T03:22:41.319Z,49.53
2018-01-21T03:23:14.826Z,53.42
2018-01-21T03:23:48.642Z,50.88
2018-01-21T03:24:22.315Z,50.65
2018-01-21T03:24:55.974Z,48.75
2018-01-21T03:25:30.465Z,51.25
2018-01-21T03:26:04.129Z,51.22
2018-01-21T03:26:37.794Z,54.58
2018-01-21T03:27:11.474Z,53.20
2018-01-21T03:27:44.808Z,49.72
2018-01-21T03:28:19.267Z,57.00
2018-01-21T03:28:52.961Z,50.97
2018-01-21T03:29:26.621Z,54.05
2018-01-21T03:30:00.301Z,53.47
2018-01-21T03:30:34.853Z,48.25
2018-01-21T03:31:08.533Z,50.00
2018-01-21T03:31:42.241Z,48.30
2018-01-21T03:32:16.174Z,47.50
2018-01-21T03:32:50.603Z,49.45
2018-01-21T03:33:24.270Z,53.67
2018-01-21T03:33:58.692Z,53.70
2018-01-21T03:34:33.154Z,51.95
2018-01-21T03:35:06.815Z,60.58
2018-01-21T03:35:40.479Z,54.15
2018-01-21T03:36:14.154Z,53.58
2018-01-21T03:36:47.809Z,59.53
2018-01-21T03:37:21.497Z,55.75
2018-01-21T03:37:55.169Z,54.80
2018-01-21T03:38:28.829Z,58.28
2018-01-21T03:39:03.027Z,58.00
2018-01-21T03:39:37.463Z,55.78
2018-01-21T03:40:11.450Z,59.63
2018-01-21T03:40:45.105Z,63.67
2018-01-21T03:41:59.603Z,56.05
2018-01-21T03:42:33.861Z,54.97
2018-01-21T03:43:08.278Z,62.15
2018-01-21T03:43:42.708Z,55.25
2018-01-21T03:44:16.366Z,54.35
2018-01-21T03:44:50.797Z,55.47
2018-01-21T03:45:24.270Z,57.33
2018-01-21T03:45:57.750Z,58.25
2018-01-21T03:46:32.190Z,55.38
2018-01-21T03:47:05.845Z,60.80
2018-01-21T03:47:40.293Z,58.60
2018-01-21T03:48:13.959Z,57.60
2018-01-21T03:48:47.615Z,58.33
2018-01-21T03:49:21.335Z,56.85
2018-01-21T03:49:55.017Z,58.58
2018-01-21T03:50:29.441Z,60.25
2018-01-21T03:51:03.100Z,60.42
2018-01-21T03:51:38.474Z,59.60
2018-01-21T03:52:12.965Z,65.62
2018-01-21T03:52:46.661Z,69.95
2018-01-21T03:53:20.312Z,64.75
2018-01-21T03:53:53.773Z,60.47
2018-01-21T03:54:27.242Z,63.47
2018-01-21T03:55:00.771Z,56.60
2018-01-21T03:55:34.416Z,58.72
2018-01-21T03:56:08.070Z,64.55
2018-01-21T03:56:42.792Z,64.18
2018-01-21T03:57:16.462Z,57.30
2018-01-21T03:57:50.931Z,56.03
2018-01-21T03:58:24.586Z,60.17
2018-01-21T03:58:58.236Z,58.75
2018-01-21T03:59:31.886Z,63.72
2018-01-21T04:00:05.550Z,63.80
2018-01-21T04:00:39.202Z,66.20
2018-01-21T04:01:12.857Z,59.85
2018-01-21T04:01:46.510Z,59.50
2018-01-21T04:02:21.155Z,60.50
2018-01-21T04:02:54.844Z,64.97
2018-01-21T04:03:28.507Z,62.85
2018-01-21T04:04:03.047Z,65.47
2018-01-21T04:04:36.710Z,62.33
2018-01-21T04:05:10.380Z,64.12
2018-01-21T04:05:44.818Z,64.60
2018-01-21T04:06:18.507Z,71.28
2018-01-21T04:06:52.165Z,69.97
2018-01-21T04:07:30.654Z,74.93
2018-01-21T04:08:05.103Z,79.62
2018-01-21T04:08:38.799Z,80.10
2018-01-21T04:09:12.462Z,71.43
2018-01-21T04:09:46.125Z,71.18
2018-01-21T04:10:20.622Z,86.40
2018-01-21T04:10:54.281Z,80.40
2018-01-21T04:11:27.937Z,70.93
2018-01-21T04:12:01.607Z,73.30
2018-01-21T04:12:36.091Z,86.63
2018-01-21T04:13:09.781Z,100.72
2018-01-21T04:13:43.452Z,89.45
2018-01-21T04:14:17.130Z,78.80
2018-01-21T04:14:50.786Z,77.68
2018-01-21T04:15:24.463Z,68.70
2018-01-21T04:15:58.881Z,80.87
2018-01-21T04:16:33.314Z,106.07
2018-01-21T04:17:06.976Z,83.10
2018-01-21T04:17:41.407Z,108.90
2018-01-21T04:18:15.102Z,81.25
2018-01-21T04:18:48.578Z,78.60
2018-01-21T04:19:22.230Z,80.57
2018-01-21T04:19:56.666Z,76.30
2018-01-21T04:20:29.992Z,83.78
2018-01-21T04:21:03.657Z,75.45
2018-01-21T04:21:37.530Z,80.28
2018-01-21T04:22:11.210Z,76.00
2018-01-21T04:22:45.450Z,75.70
2018-01-21T04:23:18.954Z,77.80
2018-01-21T04:23:52.621Z,73.78
2018-01-21T04:24:26.290Z,68.32
2018-01-21T04:24:59.953Z,65.45
2018-01-21T04:25:34.391Z,69.82
2018-01-21T04:26:08.087Z,71.20
2018-01-21T04:26:41.758Z,70.25
2018-01-21T04:27:15.415Z,65.00
2018-01-21T04:27:49.074Z,68.30
2018-01-21T04:28:22.765Z,68.25
2018-01-21T04:28:56.438Z,75.37
2018-01-21T04:29:30.098Z,65.53
2018-01-21T04:30:04.194Z,67.37
2018-01-21T04:30:38.626Z,69.53
2018-01-21T04:31:12.486Z,77.82
2018-01-21T04:31:46.914Z,69.53
2018-01-21T04:32:21.342Z,65.50
2018-01-21T04:32:55.001Z,65.90
2018-01-21T04:33:29.441Z,72.05
2018-01-21T04:34:02.763Z,70.12
2018-01-21T04:34:36.426Z,69.10
2018-01-21T04:35:10.134Z,67.87
2018-01-21T04:35:43.793Z,66.40
2018-01-21T04:36:17.460Z,68.20
2018-01-21T04:36:51.123Z,70.28
2018-01-21T04:37:25.549Z,67.20
2018-01-21T04:37:59.206Z,67.15
2018-01-21T04:38:32.905Z,71.65
2018-01-21T04:39:06.574Z,68.50
2018-01-21T04:39:40.229Z,61.10
2018-01-21T04:40:13.894Z,69.82
2018-01-21T04:40:48.322Z,67.65
2018-01-21T04:41:21.984Z,71.28
2018-01-21T04:41:56.417Z,75.55
2018-01-21T04:42:30.085Z,74.20
2018-01-21T04:43:04.523Z,70.82
2018-01-21T04:43:38.217Z,65.60
2018-01-21T04:44:11.884Z,71.28
2018-01-21T04:44:45.549Z,78.70
2018-01-21T04:45:19.970Z,72.35
2018-01-21T04:45:54.407Z,63.13
2018-01-21T04:46:28.084Z,68.72
2018-01-21T04:47:01.751Z,70.50
2018-01-21T04:47:36.164Z,79.97
2018-01-21T04:48:10.622Z,67.15
2018-01-21T04:48:44.305Z,63.83
2018-01-21T04:49:17.983Z,70.93
2018-01-21T04:49:51.646Z,64.60
2018-01-21T04:50:25.312Z,73.00
2018-01-21T04:50:58.981Z,61.05
2018-01-21T04:51:32.661Z,68.30
2018-01-21T04:52:06.313Z,77.87
2018-01-21T04:52:39.983Z,74.57
2018-01-21T04:53:14.426Z,69.32
2018-01-21T04:53:48.113Z,67.75
2018-01-21T04:54:21.778Z,75.20
2018-01-21T04:54:55.432Z,79.53
2018-01-21T04:55:29.082Z,81.78
2018-01-21T04:56:02.747Z,79.00
2018-01-21T04:56:36.415Z,69.32
2018-01-21T04:57:10.846Z,75.97
2018-01-21T04:57:44.528Z,73.75
2018-01-21T04:58:18.965Z,78.10
2018-01-21T04:58:52.664Z,70.90
2018-01-21T04:59:26.322Z,79.97
2018-01-21T05:00:00.007Z,72.20
2018-01-21T05:00:33.677Z,67.45
2018-01-21T05:01:08.122Z,75.45
2018-01-21T05:01:41.786Z,67.65
2018-01-21T05:02:15.460Z,67.78
2018-01-21T05:02:49.890Z,70.03
2018-01-21T05:03:23.546Z,72.12
2018-01-21T05:03:57.250Z,80.22
2018-01-21T05:04:31.669Z,74.30
2018-01-21T05:05:06.093Z,76.68
2018-01-21T05:05:39.751Z,68.85
2018-01-21T05:06:14.186Z,74.28
2018-01-21T05:06:47.850Z,76.03
2018-01-21T05:07:22.282Z,72.87
2018-01-21T05:07:55.963Z,69.87
2018-01-21T05:08:29.638Z,72.43
2018-01-21T05:09:03.434Z,71.18
2018-01-21T05:09:37.867Z,71.35
2018-01-21T05:10:11.523Z,74.43
2018-01-21T05:10:45.186Z,76.37
2018-01-21T05:11:18.842Z,70.15
2018-01-21T05:11:52.494Z,69.57
2018-01-21T05:12:26.922Z,65.45
2018-01-21T05:13:00.591Z,66.75
2018-01-21T05:13:35.002Z,64.97
2018-01-21T05:14:09.465Z,70.85
2018-01-21T05:14:43.207Z,66.80
2018-01-21T05:15:16.883Z,69.45
2018-01-21T05:15:50.539Z,67.07
2018-01-21T05:16:24.204Z,66.70
2018-01-21T05:16:57.874Z,68.18
2018-01-21T05:17:31.541Z,76.85
2018-01-21T05:18:05.977Z,75.10
2018-01-21T05:18:39.674Z,70.93
2018-01-21T05:19:13.365Z,60.70
2018-01-21T05:19:47.153Z,65.70
2018-01-21T05:20:20.823Z,64.65
2018-01-21T05:20:55.241Z,66.37
2018-01-21T05:21:28.919Z,68.12
2018-01-21T05:22:02.589Z,67.70
2018-01-21T05:22:36.249Z,63.47
2018-01-21T05:23:09.941Z,64.10
2018-01-21T05:23:43.602Z,66.82
2018-01-21T05:24:17.285Z,58.40
2018-01-21T05:24:50.951Z,64.70
2018-01-21T05:25:25.387Z,59.38
2018-01-21T05:25:59.041Z,65.53
2018-01-21T05:26:33.469Z,55.78
2018-01-21T05:27:07.141Z,61.78
2018-01-21T05:27:41.565Z,61.10
2018-01-21T05:28:15.230Z,61.85
2018-01-21T05:28:48.885Z,62.20
2018-01-21T05:29:22.569Z,61.83
2018-01-21T05:29:56.243Z,65.72
2018-01-21T05:30:29.904Z,60.72
2018-01-21T05:31:03.994Z,61.45
2018-01-21T05:31:38.494Z,55.72
2018-01-21T05:32:12.163Z,62.28
2018-01-21T05:32:45.821Z,63.95
2018-01-21T05:33:19.471Z,58.30
2018-01-21T05:33:53.898Z,57.85
2018-01-21T05:34:27.569Z,59.20
2018-01-21T05:35:02.001Z,57.08
2018-01-21T05:35:35.665Z,63.67
2018-01-21T05:36:10.098Z,63.17
2018-01-21T05:36:43.955Z,62.13
2018-01-21T05:37:18.378Z,58.03
2018-01-21T05:37:52.797Z,57.40
2018-01-21T05:38:26.456Z,58.60
2018-01-21T05:39:00.105Z,53.42
2018-01-21T05:39:33.810Z,59.88
2018-01-21T05:40:07.474Z,58.45
2018-01-21T05:40:40.946Z,61.28
2018-01-21T05:41:14.408Z,55.42
2018-01-21T05:41:48.838Z,58.92
2018-01-21T05:42:22.509Z,57.85
2018-01-21T05:42:56.932Z,59.97
2018-01-21T05:43:30.800Z,58.72
2018-01-21T05:44:04.459Z,56.92
2018-01-21T05:44:38.140Z,57.67
2018-01-21T05:45:11.805Z,64.85
2018-01-21T05:45:45.462Z,64.45
2018-01-21T05:46:19.888Z,62.25
2018-01-21T05:46:53.547Z,60.40
2018-01-21T05:47:27.207Z,56.97
2018-01-21T05:48:00.873Z,57.13
2018-01-21T05:48:34.345Z,57.08
2018-01-21T05:49:08.107Z,65.40
2018-01-21T05:49:41.824Z,66.57
2018-01-21T05:50:15.501Z,59.20
2018-01-21T05:50:49.917Z,61.10
2018-01-21T05:51:23.385Z,58.42
2018-01-21T05:51:57.810Z,58.13
2018-01-21T05:52:31.476Z,67.85
2018-01-21T05:53:05.130Z,59.05
2018-01-21T05:53:38.783Z,57.08
2018-01-21T05:54:12.450Z,62.60
2018-01-21T05:54:46.726Z,62.28
2018-01-21T05:55:20.200Z,65.03
2018-01-21T05:55:53.862Z,65.40
2018-01-21T05:56:27.518Z,60.83
2018-01-21T05:57:01.937Z,64.55
2018-01-21T05:57:35.610Z,65.78
2018-01-21T05:58:10.033Z,64.12
2018-01-21T05:58:43.697Z,72.07
2018-01-21T05:59:18.117Z,65.72
2018-01-21T05:59:52.600Z,66.87
2018-01-21T06:00:26.265Z,64.40
2018-01-21T06:00:59.926Z,67.80
2018-01-21T06:01:33.583Z,66.70
2018-01-21T06:02:08.017Z,66.15
2018-01-21T06:02:41.690Z,71.68
2018-01-21T06:03:16.130Z,66.00
2018-01-21T06:03:49.779Z,65.30
2018-01-21T06:04:24.218Z,62.38
2018-01-21T06:04:57.915Z,71.05
2018-01-21T06:05:31.585Z,66.28
2018-01-21T06:06:05.238Z,66.18
2018-01-21T06:06:38.910Z,64.72
2018-01-21T06:07:12.582Z,60.53
2018-01-21T06:07:46.249Z,68.85
2018-01-21T06:08:19.938Z,66.60
2018-01-21T06:08:53.611Z,69.03
2018-01-21T06:09:28.056Z,70.78
2018-01-21T06:10:01.757Z,62.88
2018-01-21T06:10:35.418Z,64.40
2018-01-21T06:11:09.100Z,66.45
2018-01-21T06:11:42.777Z,63.03
2018-01-21T06:12:17.194Z,59.42
2018-01-21T06:12:51.624Z,59.75
2018-01-21T06:13:25.312Z,59.67
2018-01-21T06:13:58.977Z,68.15
2018-01-21T06:14:32.646Z,68.95
2018-01-21T06:15:07.097Z,65.53
2018-01-21T06:15:40.754Z,63.22
2018-01-21T06:16:15.177Z,70.60
2018-01-21T06:16:48.845Z,73.00
2018-01-21T06:17:23.291Z,70.62
2018-01-21T06:17:57.000Z,66.85
2018-01-21T06:18:30.679Z,72.70
2018-01-21T06:19:04.523Z,79.12
2018-01-21T06:19:38.782Z,67.82
2018-01-21T06:20:12.280Z,66.75
2018-01-21T06:20:45.754Z,70.45
2018-01-21T06:21:19.244Z,63.22
2018-01-21T06:21:52.909Z,66.57
2018-01-21T06:22:26.573Z,63.67
2018-01-21T06:23:01.019Z,68.32
2018-01-21T06:23:34.681Z,75.62
2018-01-21T06:24:08.345Z,71.57
2018-01-21T06:24:42.776Z,63.70
2018-01-21T06:25:16.469Z,68.87
2018-01-21T06:25:50.133Z,68.22
2018-01-21T06:26:24.564Z,64.87
2018-01-21T06:26:58.244Z,74.78
2018-01-21T06:27:32.682Z,70.35
2018-01-21T06:28:06.347Z,62.83
2018-01-21T06:28:40.007Z,71.82
2018-01-21T06:29:14.439Z,55.85
2018-01-21T06:29:48.879Z,64.43
2018-01-21T06:30:22.565Z,69.93
2018-01-21T06:30:56.234Z,63.55
2018-01-21T06:31:29.914Z,62.47
2018-01-21T06:32:03.596Z,69.05
2018-01-21T06:32:38.034Z,66.20
2018-01-21T06:33:11.715Z,63.92
2018-01-21T06:33:45.394Z,62.00
2018-01-21T06:34:19.050Z,64.30
2018-01-21T06:34:52.709Z,68.20
2018-01-21T06:35:26.392Z,62.88
2018-01-21T06:36:00.055Z,63.55
2018-01-21T06:36:33.719Z,61.15
2018-01-21T06:37:07.397Z,63.30
2018-01-21T06:37:41.057Z,62.10
2018-01-21T06:38:14.733Z,62.22
2018-01-21T06:38:48.390Z,60.08
2018-01-21T06:39:22.814Z,61.65
2018-01-21T06:39:56.474Z,57.25
2018-01-21T06:40:30.167Z,60.30
2018-01-21T06:41:04.590Z,61.20
2018-01-21T06:41:39.021Z,62.22
2018-01-21T06:42:12.686Z,65.22
2018-01-21T06:42:46.341Z,60.25
2018-01-21T06:43:19.997Z,59.70
2018-01-21T06:43:53.483Z,57.08
2018-01-21T06:44:27.165Z,61.03
2018-01-21T06:45:00.827Z,58.45
2018-01-21T06:45:35.286Z,63.20
2018-01-21T06:46:08.947Z,71.95
2018-01-21T06:46:42.609Z,58.53
2018-01-21T06:47:17.074Z,66.97
2018-01-21T06:47:50.733Z,63.10
2018-01-21T06:48:24.396Z,67.87
2018-01-21T06:48:58.063Z,72.10
2018-01-21T06:49:31.729Z,71.78
2018-01-21T06:50:05.401Z,65.95
2018-01-21T06:50:39.450Z,62.40
2018-01-21T06:51:13.957Z,63.50
2018-01-21T06:51:48.381Z,67.82
2018-01-21T06:52:22.811Z,64.20
2018-01-21T06:52:56.475Z,65.82
2018-01-21T06:53:30.906Z,69.37
2018-01-21T06:54:03.910Z,60.00
2018-01-21T06:54:37.573Z,63.90
2018-01-21T06:55:11.238Z,66.10
2018-01-21T06:55:45.733Z,61.80
2018-01-21T06:56:20.165Z,69.62
2018-01-21T06:56:53.825Z,66.22
2018-01-21T06:57:27.479Z,66.70
2018-01-21T06:58:01.160Z,73.05
2018-01-21T06:58:34.823Z,62.20
2018-01-21T06:59:08.487Z,64.87
2018-01-21T06:59:42.926Z,66.60
2018-01-21T07:00:16.590Z,64.65
2018-01-21T07:00:51.054Z,66.30
2018-01-21T07:01:24.717Z,64.20
2018-01-21T07:01:58.395Z,62.13
2018-01-21T07:02:32.057Z,70.45
2018-01-21T07:03:06.507Z,74.72
2018-01-21T07:03:40.188Z,73.75
2018-01-21T07:04:13.917Z,71.03
2018-01-21T07:04:47.602Z,72.62
2018-01-21T07:05:21.276Z,73.12
2018-01-21T07:05:54.975Z,72.57
2018-01-21T07:06:28.638Z,69.70
2018-01-21T07:07:02.308Z,71.25
2018-01-21T07:07:36.734Z,76.28
2018-01-21T07:08:10.395Z,70.90
2018-01-21T07:08:44.841Z,67.20
2018-01-21T07:09:18.515Z,72.05
2018-01-21T07:09:52.190Z,72.78
2018-01-21T07:10:25.862Z,67.05
2018-01-21T07:11:00.314Z,75.82
2018-01-21T07:11:33.977Z,73.45
2018-01-21T07:12:08.409Z,83.30
2018-01-21T07:12:42.082Z,76.78
2018-01-21T07:13:15.733Z,79.32
2018-01-21T07:13:49.389Z,70.78
2018-01-21T07:14:23.054Z,70.20
2018-01-21T07:14:56.713Z,74.35
2018-01-21T07:15:31.150Z,76.45
2018-01-21T07:16:04.880Z,70.95
2018-01-21T07:16:38.559Z,74.28
2018-01-21T07:17:12.242Z,71.80